Time;durP1;ratioP1;P1;durP2;ratioP2;P2;SDS_P1;SDS_P2;PMS_P1;PMS_P2;Temp;Humidity;BMP_temperature;BMP_pressure;BME280_temperature;BME280_humidity;BME280_pressure;Samples;Min_cycle;Max_cycle;Signal;HPM_P1;HPM_P2
2022/11/10 00:00:38;;;;;;;200.38;105.80;;;5.50;99.90;;;;;;5095135;28;20128;-75
2022/11/10 00:03:23;;;;;;;194.27;101.43;;;5.50;99.90;;;;;;5094965;28;20482;-75
2022/11/10 00:06:08;;;;;;;202.55;107.93;;;5.50;99.90;;;;;;5094981;28;20039;-75
2022/11/10 00:08:53;;;;;;;234.73;121.68;;;5.50;99.90;;;;;;5114488;28;20050;-76
2022/11/10 00:11:38;;;;;;;240.02;115.43;;;5.50;99.90;;;;;;5115332;28;20042;-76
2022/11/10 00:17:25;;;;;;;192.38;97.60;;;5.60;99.90;;;;;;5115037;28;20500;-75
2022/11/10 00:20:11;;;;;;;183.25;95.03;;;5.50;99.90;;;;;;5115200;28;20110;-75
2022/11/10 00:22:56;;;;;;;184.00;90.05;;;5.50;99.90;;;;;;5114434;28;20038;-76
2022/11/10 00:25:40;;;;;;;179.00;90.20;;;5.70;99.90;;;;;;5115249;28;20042;-75
2022/11/10 00:28:25;;;;;;;211.38;103.25;;;5.60;99.90;;;;;;5115389;28;20085;-76
2022/11/10 00:31:11;;;;;;;229.13;110.88;;;5.70;99.90;;;;;;5114909;28;20042;-75
2022/11/10 00:33:55;;;;;;;217.73;109.07;;;5.80;99.90;;;;;;5115434;28;20051;-75
2022/11/10 00:36:41;;;;;;;227.90;114.18;;;5.90;99.90;;;;;;5114889;28;20114;-75
2022/11/10 00:39:25;;;;;;;251.15;122.90;;;5.90;99.90;;;;;;5114912;28;20123;-75
2022/11/10 00:42:10;;;;;;;224.20;109.30;;;5.70;99.90;;;;;;5114927;28;20135;-75
2022/11/10 00:44:54;;;;;;;200.82;100.53;;;5.80;99.90;;;;;;5115093;28;20104;-75
2022/11/10 00:47:39;;;;;;;191.02;94.63;;;5.70;99.90;;;;;;5114934;28;20065;-75
2022/11/10 00:50:24;;;;;;;188.30;95.70;;;5.60;99.90;;;;;;5114783;28;20416;-75
2022/11/10 00:53:09;;;;;;;174.32;87.93;;;5.50;99.90;;;;;;5115071;28;20042;-75
2022/11/10 00:55:53;;;;;;;165.82;85.43;;;5.40;99.90;;;;;;5115092;28;20126;-74
2022/11/10 00:58:38;;;;;;;178.35;91.43;;;5.50;99.90;;;;;;5125402;27;20103;-74
2022/11/10 01:01:24;;;;;;;245.35;118.32;;;5.50;99.90;;;;;;5135476;28;20255;-74
2022/11/10 01:04:08;;;;;;;266.02;123.55;;;5.40;99.90;;;;;;5135526;28;20503;-74
2022/11/10 01:06:53;;;;;;;225.60;110.00;;;5.50;99.90;;;;;;5132329;28;20054;-74
2022/11/10 01:09:38;;;;;;;254.95;119.70;;;5.60;99.90;;;;;;5114760;28;20054;-74
2022/11/10 01:12:22;;;;;;;271.88;125.15;;;5.50;99.90;;;;;;5114491;28;20442;-74
2022/11/10 01:15:08;;;;;;;267.67;126.88;;;5.60;99.90;;;;;;5114623;28;20039;-76
2022/11/10 01:17:53;;;;;;;273.27;129.88;;;5.60;99.90;;;;;;5114790;28;20495;-74
2022/11/10 01:20:38;;;;;;;231.10;114.72;;;5.50;99.90;;;;;;5114425;28;20092;-74
2022/11/10 01:23:22;;;;;;;228.43;108.97;;;5.50;99.90;;;;;;5114379;28;20315;-74
2022/11/10 01:26:07;;;;;;;267.48;134.63;;;5.40;99.90;;;;;;5114592;28;20082;-74
2022/11/10 01:28:52;;;;;;;232.35;115.07;;;5.30;99.90;;;;;;5099291;28;20491;-74
2022/11/10 01:31:37;;;;;;;238.48;117.05;;;5.30;99.90;;;;;;5114586;28;20439;-74
2022/11/10 01:34:22;;;;;;;213.20;108.20;;;5.20;99.90;;;;;;5118206;28;20059;-74
2022/11/10 01:37:06;;;;;;;175.38;89.80;;;5.20;99.90;;;;;;5118448;28;20081;-74
2022/11/10 01:39:51;;;;;;;182.57;93.40;;;5.20;99.90;;;;;;5118549;28;20046;-75
2022/11/10 01:42:50;;;;;;;195.73;99.85;;;5.10;99.90;;;;;;5117964;28;20055;-75
2022/11/10 01:46:00;;;;;;;176.15;90.45;;;5.00;99.90;;;;;;5118091;28;20114;-74
2022/11/10 01:48:46;;;;;;;169.13;86.30;;;4.90;99.90;;;;;;5117804;28;20512;-75
2022/11/10 01:51:36;;;;;;;155.35;78.95;;;4.90;99.90;;;;;;5117933;28;20050;-75
2022/11/10 01:54:32;;;;;;;190.40;94.80;;;4.90;99.90;;;;;;5117921;28;20039;-75
2022/11/10 01:57:16;;;;;;;175.05;86.97;;;4.90;99.90;;;;;;5118112;28;20066;-75
2022/11/10 02:00:02;;;;;;;169.50;83.10;;;4.80;99.90;;;;;;5117728;28;20081;-75
2022/11/10 02:03:02;;;;;;;168.38;82.88;;;4.80;99.90;;;;;;5117627;28;20081;-75
2022/11/10 02:05:49;;;;;;;164.15;80.00;;;4.70;99.90;;;;;;5117419;28;20083;-74
2022/11/10 02:08:34;;;;;;;151.18;76.07;;;4.70;99.90;;;;;;5134823;27;20131;-74
2022/11/10 02:11:20;;;;;;;141.88;71.75;;;4.80;99.90;;;;;;5138079;27;20046;-76
2022/11/10 02:14:05;;;;;;;138.68;68.25;;;4.70;99.90;;;;;;5138152;27;20038;-75
2022/11/10 02:16:50;;;;;;;149.43;73.95;;;4.70;99.90;;;;;;5137730;27;20142;-76
2022/11/10 02:19:41;;;;;;;144.18;73.35;;;4.60;99.90;;;;;;5138167;27;20083;-74
2022/11/10 02:22:26;;;;;;;162.75;76.60;;;4.60;99.90;;;;;;5137909;27;20052;-75
2022/11/10 02:25:16;;;;;;;142.48;71.28;;;4.60;99.90;;;;;;5137819;27;20065;-75
2022/11/10 02:28:00;;;;;;;140.23;69.87;;;4.50;99.90;;;;;;5137747;27;20050;-75
2022/11/10 02:30:45;;;;;;;141.07;70.95;;;4.60;99.90;;;;;;5137582;27;20042;-75
2022/11/10 02:33:30;;;;;;;150.20;74.68;;;4.60;99.90;;;;;;5137590;27;20541;-75
2022/11/10 02:36:14;;;;;;;204.52;98.20;;;4.60;99.90;;;;;;5137667;27;20078;-75
2022/11/10 02:38:59;;;;;;;191.63;93.70;;;4.70;99.90;;;;;;5137515;27;20460;-75
2022/11/10 02:41:43;;;;;;;188.95;93.07;;;4.80;99.90;;;;;;5137555;27;20064;-75
2022/11/10 02:44:28;;;;;;;203.13;100.88;;;4.80;99.90;;;;;;5136764;27;20039;-75
2022/11/10 02:47:12;;;;;;;228.25;116.03;;;4.70;99.90;;;;;;5137425;27;20042;-75
2022/11/10 02:49:57;;;;;;;209.75;112.57;;;4.80;99.90;;;;;;5137449;27;20057;-75
2022/11/10 02:52:42;;;;;;;201.80;107.57;;;4.80;99.90;;;;;;5137138;27;20046;-75
2022/11/10 02:55:26;;;;;;;204.85;107.20;;;4.80;99.90;;;;;;5137335;27;20038;-75
2022/11/10 02:58:11;;;;;;;182.45;95.30;;;4.80;99.90;;;;;;5137312;27;20054;-74
2022/11/10 03:00:56;;;;;;;145.93;80.38;;;4.80;99.90;;;;;;5137103;27;20074;-75
2022/11/10 03:03:40;;;;;;;127.97;66.95;;;4.70;99.90;;;;;;5137129;27;20115;-74
2022/11/10 03:06:25;;;;;;;141.00;76.25;;;4.60;99.90;;;;;;5137072;27;20477;-74
2022/11/10 03:09:10;;;;;;;151.88;80.45;;;4.50;99.90;;;;;;5096181;28;20039;-75
2022/11/10 03:11:54;;;;;;;133.48;70.75;;;4.60;99.90;;;;;;5095940;28;20043;-75
2022/11/10 03:14:39;;;;;;;125.80;62.92;;;4.70;99.90;;;;;;5095913;28;20035;-74
2022/11/10 03:17:24;;;;;;;126.25;61.58;;;4.70;99.90;;;;;;5096112;28;20054;-75
2022/11/10 03:20:09;;;;;;;127.32;64.40;;;4.70;99.90;;;;;;5095793;28;20057;-75
2022/11/10 03:22:59;;;;;;;120.25;59.40;;;4.70;99.90;;;;;;5095967;28;20063;-75
2022/11/10 03:25:44;;;;;;;109.43;58.10;;;4.60;99.90;;;;;;5096046;28;20055;-75
2022/11/10 03:28:28;;;;;;;118.07;62.95;;;4.60;99.90;;;;;;5095434;28;20119;-75
2022/11/10 03:31:13;;;;;;;113.03;58.53;;;4.50;99.90;;;;;;5095558;28;20109;-74
2022/11/10 03:33:58;;;;;;;111.68;58.90;;;4.50;99.90;;;;;;5095557;28;20055;-75
2022/11/10 03:36:43;;;;;;;117.88;60.80;;;4.50;99.90;;;;;;5095477;28;20038;-76
2022/11/10 03:39:27;;;;;;;123.82;61.47;;;4.40;99.90;;;;;;5095644;28;20542;-76
2022/11/10 03:42:12;;;;;;;120.00;59.83;;;4.40;99.90;;;;;;5095732;28;20063;-74
2022/11/10 03:44:57;;;;;;;127.80;61.72;;;4.50;99.90;;;;;;5095411;28;20661;-74
2022/11/10 03:47:46;;;;;;;138.45;64.18;;;4.50;99.90;;;;;;5080106;28;20078;-75
2022/11/10 03:50:31;;;;;;;148.82;68.80;;;4.40;99.90;;;;;;5094351;28;20055;-75
2022/11/10 03:53:15;;;;;;;149.23;64.93;;;4.40;99.90;;;;;;5095412;28;20093;-74
2022/11/10 03:56:04;;;;;;;206.45;83.07;;;4.40;99.90;;;;;;5094894;28;20039;-75
2022/11/10 03:58:49;;;;;;;207.75;83.72;;;4.40;99.90;;;;;;5095145;28;20051;-74
2022/11/10 04:01:33;;;;;;;179.35;76.10;;;4.50;99.90;;;;;;5095142;28;20512;-74
2022/11/10 04:10:24;;;;;;;137.98;65.18;;;4.40;99.90;;;;;;5115370;28;20078;-74
2022/11/10 04:16:13;;;;;;;147.15;66.38;;;4.30;99.90;;;;;;5115370;28;20037;-75
2022/11/10 04:18:57;;;;;;;147.88;67.22;;;4.30;99.90;;;;;;5115187;28;20073;-76
2022/11/10 04:21:42;;;;;;;128.70;61.92;;;4.30;99.90;;;;;;5115283;28;20050;-74
2022/11/10 04:24:27;;;;;;;126.47;61.45;;;4.20;99.90;;;;;;5115145;28;20542;-75
2022/11/10 04:27:11;;;;;;;131.10;59.90;;;4.20;99.90;;;;;;5115093;28;20054;-74
2022/11/10 04:29:56;;;;;;;125.00;61.40;;;4.20;99.90;;;;;;5115063;28;20088;-74
2022/11/10 04:32:41;;;;;;;121.43;56.92;;;4.10;99.90;;;;;;5114975;28;20037;-75
2022/11/10 04:35:25;;;;;;;108.35;55.03;;;4.00;99.90;;;;;;5115237;28;20062;-75
2022/11/10 04:38:10;;;;;;;126.32;61.30;;;4.10;99.90;;;;;;5115028;28;20039;-75
2022/11/10 04:40:55;;;;;;;117.57;60.60;;;4.00;99.90;;;;;;5115617;28;20035;-75
2022/11/10 04:43:40;;;;;;;126.85;64.63;;;4.00;99.90;;;;;;5114983;28;20056;-74
2022/11/10 04:46:34;;;;;;;130.50;64.95;;;3.90;99.90;;;;;;5114932;28;20062;-74
2022/11/10 04:49:18;;;;;;;120.78;63.33;;;3.90;99.90;;;;;;5114936;28;20078;-74
2022/11/10 04:52:02;;;;;;;131.73;63.38;;;4.00;99.90;;;;;;5114914;28;20057;-75
2022/11/10 04:54:47;;;;;;;113.88;60.20;;;4.00;99.90;;;;;;5114773;28;20070;-75
2022/11/10 04:57:31;;;;;;;119.28;58.83;;;4.10;99.90;;;;;;5113634;28;20495;-75
2022/11/10 05:00:17;;;;;;;104.03;49.67;;;4.10;99.90;;;;;;5094420;28;20036;-76
2022/11/10 05:03:04;;;;;;;96.18;47.10;;;4.10;99.90;;;;;;5094639;28;20632;-75
2022/11/10 05:05:48;;;;;;;99.10;45.72;;;4.10;99.90;;;;;;5094280;28;20039;-75
2022/11/10 05:08:32;;;;;;;105.78;50.15;;;4.20;99.90;;;;;;5096509;28;20127;-75
2022/11/10 05:11:17;;;;;;;115.00;53.70;;;4.10;99.90;;;;;;5082922;28;20039;-75
2022/11/10 05:14:02;;;;;;;107.68;52.88;;;4.00;99.90;;;;;;5098456;28;20070;-74
2022/11/10 05:16:46;;;;;;;95.32;49.22;;;3.90;99.90;;;;;;5097995;28;20123;-74
2022/11/10 05:19:31;;;;;;;101.75;48.22;;;3.90;99.90;;;;;;5098150;28;20071;-76
2022/11/10 05:22:16;;;;;;;101.85;49.90;;;3.90;99.90;;;;;;5097915;28;20174;-76
2022/11/10 05:25:00;;;;;;;107.13;47.03;;;3.90;99.90;;;;;;5098157;28;20054;-75
2022/11/10 05:27:45;;;;;;;86.70;42.15;;;4.10;99.90;;;;;;5098309;28;20055;-76
2022/11/10 05:30:30;;;;;;;83.85;41.20;;;4.00;99.90;;;;;;5097993;28;20480;-75
2022/11/10 05:33:14;;;;;;;80.55;42.67;;;4.10;99.90;;;;;;5098157;28;20127;-75
2022/11/10 05:35:59;;;;;;;79.03;38.78;;;4.00;99.90;;;;;;5098043;28;20035;-75
2022/11/10 05:38:43;;;;;;;68.15;36.20;;;4.00;99.90;;;;;;5097986;28;20039;-75
2022/11/10 05:41:28;;;;;;;77.20;35.92;;;4.10;99.90;;;;;;5097820;28;20042;-76
2022/11/10 05:44:13;;;;;;;77.28;38.58;;;4.10;99.90;;;;;;5097788;28;20118;-75
2022/11/10 05:46:57;;;;;;;86.63;39.40;;;3.90;99.90;;;;;;5097867;28;20058;-75
2022/11/10 05:49:42;;;;;;;75.72;42.17;;;3.80;99.90;;;;;;5097504;28;20043;-74
2022/11/10 05:52:26;;;;;;;123.03;55.75;;;3.80;99.90;;;;;;5097355;28;20051;-75
2022/11/10 05:55:12;;;;;;;143.70;64.90;;;3.80;99.90;;;;;;5097509;28;20043;-74
2022/11/10 05:57:57;;;;;;;154.10;69.00;;;3.80;99.90;;;;;;5101866;28;20055;-74
2022/11/10 06:00:41;;;;;;;124.90;56.83;;;3.80;99.90;;;;;;5117816;28;20074;-75
2022/11/10 06:03:26;;;;;;;113.40;56.25;;;3.90;99.90;;;;;;5117656;28;20050;-75
2022/11/10 06:06:10;;;;;;;108.60;54.63;;;4.10;99.90;;;;;;5117570;28;20046;-75
2022/11/10 06:08:55;;;;;;;124.63;55.33;;;4.10;99.90;;;;;;5118769;28;20560;-75
2022/11/10 06:11:39;;;;;;;124.00;57.78;;;4.30;99.90;;;;;;5118796;28;20034;-75
2022/11/10 06:14:24;;;;;;;116.55;58.35;;;4.70;99.90;;;;;;5117910;28;20038;-75
2022/11/10 06:17:09;;;;;;;118.07;50.47;;;5.40;99.90;;;;;;5117440;28;20112;-75
2022/11/10 06:19:54;;;;;;;100.53;45.00;;;6.00;99.90;;;;;;5096611;28;20083;-76
2022/11/10 06:22:39;;;;;;;91.10;44.17;;;6.80;99.90;;;;;;5088817;28;20054;-77
2022/11/10 06:25:23;;;;;;;97.10;44.38;;;7.70;99.90;;;;;;5077873;28;20199;-76
2022/11/10 06:28:09;;;;;;;108.68;48.08;;;8.20;99.90;;;;;;5090115;28;20042;-76
2022/11/10 06:30:57;;;;;;;126.72;50.70;;;8.60;99.90;;;;;;5105177;28;20146;-76
2022/11/10 06:33:41;;;;;;;155.15;64.07;;;9.40;99.90;;;;;;5079734;28;20047;-76
2022/11/10 06:36:26;;;;;;;132.68;60.10;;;10.00;99.90;;;;;;5108575;28;20108;-77
2022/11/10 06:39:18;;;;;;;132.15;62.90;;;10.50;99.90;;;;;;5096115;28;20039;-77
2022/11/10 06:42:02;;;;;;;156.50;61.25;;;11.10;99.90;;;;;;5114944;28;20081;-77
2022/11/10 06:44:47;;;;;;;162.13;66.85;;;11.50;99.90;;;;;;5116239;28;20112;-76
2022/11/10 06:47:32;;;;;;;189.20;75.72;;;11.70;99.20;;;;;;5115642;28;20481;-76
2022/11/10 06:50:16;;;;;;;167.40;75.07;;;12.60;96.40;;;;;;5086458;28;20048;-76
2022/11/10 06:53:01;;;;;;;181.98;87.78;;;12.80;93.60;;;;;;5083906;28;20063;-76
2022/11/10 06:55:46;;;;;;;179.55;89.32;;;12.50;94.30;;;;;;5094047;28;20089;-76
2022/11/10 06:58:31;;;;;;;178.65;88.07;;;12.80;92.60;;;;;;5085649;27;20069;-77
2022/11/10 07:01:25;;;;;;;145.98;75.85;;;12.90;92.40;;;;;;5117781;27;20066;-77
2022/11/10 07:04:10;;;;;;;141.30;71.90;;;13.60;91.00;;;;;;5084514;28;20046;-77
2022/11/10 07:06:55;;;;;;;158.23;81.50;;;13.60;90.80;;;;;;5111571;28;20121;-77
2022/11/10 07:09:39;;;;;;;168.07;85.28;;;14.30;85.90;;;;;;5105004;28;20099;-77
2022/11/10 07:12:24;;;;;;;155.75;81.45;;;13.80;87.90;;;;;;5106857;28;20412;-76
2022/11/10 07:15:09;;;;;;;162.15;85.85;;;15.30;83.80;;;;;;5108539;28;20057;-76
2022/11/10 07:17:53;;;;;;;179.13;90.15;;;14.40;78.80;;;;;;5115520;27;20042;-76
2022/11/10 07:20:38;;;;;;;174.75;87.55;;;13.90;83.80;;;;;;5115996;28;20129;-76
2022/11/10 07:23:23;;;;;;;174.45;90.95;;;13.70;88.50;;;;;;5116031;28;20046;-76
2022/11/10 07:26:07;;;;;;;165.93;90.75;;;14.10;85.10;;;;;;5113961;28;20519;-76
2022/11/10 07:28:52;;;;;;;174.45;92.78;;;14.70;84.90;;;;;;5112358;28;20152;-76
2022/11/10 07:31:36;;;;;;;178.88;92.35;;;15.50;80.10;;;;;;5112775;27;20039;-76
2022/11/10 07:34:21;;;;;;;188.77;98.68;;;15.10;77.70;;;;;;5112422;28;20058;-76
2022/11/10 07:37:08;;;;;;;194.02;99.13;;;14.30;87.00;;;;;;5110513;27;20043;-76
2022/11/10 07:39:53;;;;;;;196.60;102.97;;;14.10;86.50;;;;;;5136600;27;20053;-74
2022/11/10 07:42:41;;;;;;;171.90;94.88;;;14.30;91.00;;;;;;5120619;27;20096;-74
2022/11/10 07:45:26;;;;;;;148.52;81.80;;;14.60;90.20;;;;;;5115416;28;20049;-74
2022/11/10 07:48:11;;;;;;;128.38;73.10;;;14.90;87.80;;;;;;5115139;28;20054;-74
2022/11/10 07:50:55;;;;;;;129.73;66.90;;;15.40;86.70;;;;;;5115159;28;20050;-73
2022/11/10 07:53:40;;;;;;;128.88;68.40;;;16.20;86.60;;;;;;5117818;27;20427;-74
2022/11/10 07:56:26;;;;;;;114.65;64.15;;;16.00;82.20;;;;;;5115683;27;20479;-74
2022/11/10 07:59:11;;;;;;;117.13;65.18;;;16.60;83.90;;;;;;5134595;27;20050;-74
2022/11/10 08:01:56;;;;;;;132.40;70.40;;;17.00;81.10;;;;;;5132495;27;20076;-74
2022/11/10 08:04:41;;;;;;;125.25;74.22;;;17.30;76.40;;;;;;5133787;27;20050;-74
2022/11/10 08:07:25;;;;;;;136.75;82.03;;;17.20;78.70;;;;;;5121403;27;20038;-74
2022/11/10 08:10:10;;;;;;;131.27;77.82;;;17.60;75.30;;;;;;5123716;27;20046;-74
2022/11/10 08:12:56;;;;;;;145.88;81.78;;;17.80;73.50;;;;;;5119626;27;20062;-74
2022/11/10 08:15:41;;;;;;;158.18;85.63;;;18.00;72.70;;;;;;5111539;28;20032;-74
2022/11/10 08:18:26;;;;;;;145.88;82.70;;;18.30;73.20;;;;;;5079997;28;20070;-74
2022/11/10 08:21:10;;;;;;;138.65;76.40;;;18.60;70.20;;;;;;5101826;28;20188;-74
2022/11/10 08:23:55;;;;;;;130.20;74.45;;;19.10;68.40;;;;;;5122057;27;20041;-74
2022/11/10 08:26:40;;;;;;;132.27;74.15;;;19.30;67.00;;;;;;5123482;27;20430;-74
2022/11/10 08:29:24;;;;;;;132.63;74.13;;;19.40;64.00;;;;;;5127933;27;21592;-74
2022/11/10 08:32:09;;;;;;;125.38;68.78;;;19.80;63.00;;;;;;5103722;28;20080;-74
2022/11/10 08:34:54;;;;;;;161.98;91.88;;;19.60;63.90;;;;;;5114593;28;20107;-74
2022/11/10 08:37:38;;;;;;;115.35;61.17;;;19.10;66.30;;;;;;5114558;28;20065;-75
2022/11/10 08:40:26;;;;;;;128.55;58.35;;;19.70;66.00;;;;;;5113310;28;20076;-75
2022/11/10 08:43:11;;;;;;;116.45;58.20;;;20.40;62.70;;;;;;5096319;28;20053;-74
2022/11/10 08:45:56;;;;;;;103.75;52.60;;;20.20;62.00;;;;;;5110021;28;20070;-75
2022/11/10 08:48:41;;;;;;;89.55;48.72;;;20.70;60.70;;;;;;5117885;28;20507;-75
2022/11/10 08:51:28;;;;;;;90.07;45.45;;;20.60;59.80;;;;;;5132858;27;20049;-75
2022/11/10 08:54:12;;;;;;;76.50;40.85;;;20.80;61.30;;;;;;5138552;27;20506;-75
2022/11/10 08:56:57;;;;;;;70.80;32.60;;;21.10;58.00;;;;;;5137916;27;20038;-75
2022/11/10 08:59:42;;;;;;;55.00;34.78;;;21.80;55.20;;;;;;5137415;27;20092;-76
2022/11/10 09:02:26;;;;;;;63.95;39.65;;;21.70;55.70;;;;;;5110398;27;20034;-76
2022/11/10 09:05:11;;;;;;;76.22;39.40;;;22.30;54.80;;;;;;5133480;27;20092;-77
2022/11/10 09:07:56;;;;;;;67.75;36.33;;;22.50;53.70;;;;;;5126690;27;20077;-77
2022/11/10 09:10:44;;;;;;;52.25;32.40;;;22.70;53.20;;;;;;5124845;27;20046;-76
2022/11/10 09:13:29;;;;;;;53.45;30.08;;;22.70;52.70;;;;;;5137809;27;20137;-76
2022/11/10 09:16:14;;;;;;;55.13;29.92;;;23.40;51.10;;;;;;5125839;27;20045;-77
2022/11/10 09:18:58;;;;;;;58.10;27.05;;;22.80;51.50;;;;;;5138869;27;20148;-77
2022/11/10 09:21:43;;;;;;;59.55;30.40;;;23.20;50.20;;;;;;5137507;27;20038;-74
2022/11/10 09:24:28;;;;;;;50.53;28.70;;;23.60;49.00;;;;;;5111721;27;20126;-77
2022/11/10 09:27:13;;;;;;;49.75;29.02;;;22.90;50.90;;;;;;5123698;27;20066;-77
2022/11/10 09:29:58;;;;;;;42.38;24.42;;;23.70;49.90;;;;;;5117698;28;20511;-77
2022/11/10 09:32:45;;;;;;;67.93;39.95;;;24.00;47.20;;;;;;5107021;27;20051;-77
2022/11/10 09:35:29;;;;;;;54.08;28.65;;;23.80;49.20;;;;;;5118009;27;20150;-78
2022/11/10 09:38:14;;;;;;;56.85;29.33;;;23.30;49.70;;;;;;5097646;28;20039;-77
2022/11/10 09:41:05;;;;;;;44.70;28.30;;;23.20;49.40;;;;;;5097182;27;20046;-77
2022/11/10 09:44:10;;;;;;;57.08;30.27;;;23.80;47.90;;;;;;5138139;27;20119;-77
2022/11/10 09:47:04;;;;;;;43.92;26.65;;;24.20;47.20;;;;;;5119307;27;20500;-78
2022/11/10 09:49:56;;;;;;;44.22;23.83;;;24.40;47.10;;;;;;5113330;27;20042;-77
2022/11/10 09:52:42;;;;;;;40.22;23.08;;;23.90;46.80;;;;;;5120164;27;20042;-78
2022/11/10 09:55:33;;;;;;;45.50;25.90;;;24.10;47.60;;;;;;5121605;27;20034;-78
2022/11/10 09:58:22;;;;;;;46.95;24.58;;;24.30;47.40;;;;;;5107710;27;20042;-78
2022/11/10 10:01:25;;;;;;;42.35;22.92;;;24.20;47.10;;;;;;5106066;28;20058;-78
2022/11/10 10:04:15;;;;;;;46.28;21.23;;;24.70;45.00;;;;;;5107787;28;20070;-78
2022/11/10 10:07:15;;;;;;;43.88;22.67;;;25.20;44.60;;;;;;5117258;28;20115;-79
2022/11/10 10:10:22;;;;;;;48.47;23.63;;;25.10;43.30;;;;;;5111278;28;20539;-79
2022/11/10 10:13:09;;;;;;;49.03;22.77;;;24.70;44.10;;;;;;5108605;28;20046;-79
2022/11/10 10:16:26;;;;;;;39.97;22.60;;;24.50;45.60;;;;;;5110639;28;20173;-79
2022/11/10 10:19:35;;;;;;;56.42;23.20;;;24.50;44.80;;;;;;5107707;28;20042;-79
2022/11/10 10:22:38;;;;;;;40.72;20.77;;;24.80;44.00;;;;;;5100372;28;20759;-79
2022/11/10 10:25:25;;;;;;;46.70;22.77;;;24.80;43.70;;;;;;5083228;28;20516;-79
2022/11/10 10:28:34;;;;;;;37.53;18.70;;;25.10;45.10;;;;;;5106160;28;20093;-80
2022/11/10 10:31:25;;;;;;;39.42;21.65;;;24.30;42.30;;;;;;5111434;27;20039;-79
2022/11/10 10:34:19;;;;;;;33.15;19.05;;;25.20;43.60;;;;;;5105485;28;20081;-79
2022/11/10 10:37:04;;;;;;;29.27;18.55;;;25.30;42.40;;;;;;5110925;28;20081;-79
2022/11/10 10:39:51;;;;;;;37.10;18.33;;;25.20;40.70;;;;;;5120183;27;20414;-80
2022/11/10 10:42:36;;;;;;;26.27;14.05;;;25.40;41.60;;;;;;5124638;27;20062;-80
2022/11/10 10:45:24;;;;;;;35.45;14.57;;;25.80;39.90;;;;;;5107255;28;20047;-79
2022/11/10 10:48:29;;;;;;;27.70;13.43;;;25.90;39.20;;;;;;5114578;28;20053;-79
2022/11/10 10:51:29;;;;;;;18.80;10.15;;;26.20;38.60;;;;;;5111662;28;20062;-79
2022/11/10 10:54:34;;;;;;;21.95;10.68;;;26.20;37.30;;;;;;5121497;27;20097;-79
2022/11/10 10:57:22;;;;;;;18.55;10.13;;;25.90;38.10;;;;;;5110725;28;20042;-78
2022/11/10 11:00:25;;;;;;;31.23;13.30;;;26.00;36.40;;;;;;5088028;28;20098;-79
2022/11/10 11:03:23;;;;;;;21.80;11.00;;;26.20;37.40;;;;;;5087808;28;20141;-79
2022/11/10 11:06:13;;;;;;;24.08;11.43;;;26.20;36.20;;;;;;5094334;28;20046;-79
2022/11/10 11:08:58;;;;;;;18.35;11.35;;;26.50;36.40;;;;;;5082985;28;20119;-79
2022/11/10 11:11:45;;;;;;;31.98;11.45;;;26.40;35.30;;;;;;5096269;28;20089;-79
2022/11/10 11:14:30;;;;;;;27.77;12.80;;;26.70;35.90;;;;;;5095677;28;20046;-79
2022/11/10 11:17:20;;;;;;;32.15;13.80;;;26.70;34.80;;;;;;5094379;28;20035;-79
2022/11/10 11:20:13;;;;;;;41.72;14.45;;;25.90;37.00;;;;;;5089192;28;20034;-79
2022/11/10 11:23:33;;;;;;;48.40;16.40;;;26.30;36.80;;;;;;5095291;28;20090;-79
2022/11/10 11:26:36;;;;;;;33.95;18.05;;;26.70;36.30;;;;;;5087074;28;20039;-79
2022/11/10 11:29:40;;;;;;;31.75;16.25;;;26.90;37.10;;;;;;5084304;28;20554;-79
2022/11/10 11:32:52;;;;;;;34.05;16.40;;;27.20;36.90;;;;;;5078716;28;20048;-79
2022/11/10 11:36:29;;;;;;;24.27;15.68;;;27.50;36.40;;;;;;5086275;28;20035;-79
2022/11/10 11:39:37;;;;;;;39.95;17.67;;;27.50;37.60;;;;;;5012250;28;20495;-77
2022/11/10 11:42:39;;;;;;;36.25;17.75;;;27.30;35.40;;;;;;5092181;28;20054;-78
2022/11/10 11:45:36;;;;;;;33.97;17.80;;;27.40;36.20;;;;;;5085035;28;20046;-78
2022/11/10 11:48:48;;;;;;;37.90;16.65;;;26.80;36.20;;;;;;5079568;28;20109;-78
2022/11/10 11:51:39;;;;;;;32.08;17.77;;;27.30;36.40;;;;;;5086226;28;20125;-77
2022/11/10 11:54:46;;;;;;;44.15;18.02;;;27.00;37.10;;;;;;5098212;28;20038;-78
2022/11/10 11:57:51;;;;;;;35.30;17.27;;;27.10;37.50;;;;;;5095990;28;20401;-77
2022/11/10 12:00:54;;;;;;;31.55;15.82;;;26.60;38.20;;;;;;5094299;28;20042;-78
2022/11/10 12:04:20;;;;;;;32.08;15.65;;;26.70;38.70;;;;;;5094560;28;20058;-78
2022/11/10 12:07:30;;;;;;;32.88;15.25;;;26.40;37.20;;;;;;5094602;28;20064;-78
2022/11/10 12:10:44;;;;;;;42.28;21.20;;;26.20;38.60;;;;;;5083018;28;20043;-78
2022/11/10 12:13:41;;;;;;;53.08;27.67;;;25.70;40.30;;;;;;5085217;28;20509;-78
2022/11/10 12:16:29;;;;;;;53.92;27.42;;;25.40;41.80;;;;;;5081875;28;20106;-78
2022/11/10 12:19:32;;;;;;;37.58;17.45;;;25.20;42.80;;;;;;5095806;28;20500;-78
2022/11/10 12:22:41;;;;;;;26.80;10.48;;;25.10;43.60;;;;;;5093871;28;20136;-78
2022/11/10 12:25:46;;;;;;;12.98;6.57;;;24.80;42.70;;;;;;5085197;28;20402;-77
2022/11/10 12:28:37;;;;;;;10.93;5.20;;;25.40;43.10;;;;;;5083040;28;20802;-78
2022/11/10 12:31:24;;;;;;;8.55;4.60;;;26.00;43.60;;;;;;5099295;28;20112;-77
2022/11/10 12:34:33;;;;;;;6.97;4.25;;;26.30;41.60;;;;;;5074406;28;20039;-78
2022/11/10 12:37:39;;;;;;;9.73;5.50;;;26.10;42.40;;;;;;5075059;28;20129;-78
2022/11/10 12:40:38;;;;;;;13.38;6.32;;;26.60;41.70;;;;;;5088279;28;20140;-78
2022/11/10 12:44:12;;;;;;;14.98;6.63;;;26.20;41.70;;;;;;5082758;28;20090;-78
2022/11/10 12:47:01;;;;;;;24.85;15.30;;;26.40;40.50;;;;;;5056137;28;20047;-79
2022/11/10 12:50:29;;;;;;;11.93;5.82;;;27.10;41.00;;;;;;5083251;28;20105;-79
2022/11/10 12:53:26;;;;;;;10.50;7.90;;;27.30;39.40;;;;;;5090986;28;20539;-79
2022/11/10 12:56:36;;;;;;;15.15;7.07;;;27.30;39.00;;;;;;5094261;28;20419;-79
2022/11/10 12:59:21;;;;;;;18.92;7.03;;;27.00;38.50;;;;;;5093929;28;20059;-79
2022/11/10 13:02:28;;;;;;;12.52;6.40;;;27.00;39.20;;;;;;5094198;28;20051;-78
2022/11/10 13:05:13;;;;;;;15.65;6.57;;;27.10;39.20;;;;;;5093887;28;20105;-79
2022/11/10 13:08:27;;;;;;;10.50;6.30;;;26.00;40.20;;;;;;5095496;28;20402;-78
2022/11/10 13:11:11;;;;;;;16.80;7.80;;;25.10;42.40;;;;;;5109127;28;20506;-78
2022/11/10 13:13:58;;;;;;;16.20;6.53;;;24.80;42.60;;;;;;5114490;28;20091;-78
2022/11/10 13:16:47;;;;;;;13.93;6.43;;;24.20;44.30;;;;;;5114244;28;20047;-77
2022/11/10 13:19:32;;;;;;;20.50;7.53;;;23.70;44.40;;;;;;5114393;28;20562;-78
2022/11/10 13:22:39;;;;;;;24.58;9.77;;;23.50;46.20;;;;;;5105688;28;20066;-77
2022/11/10 13:25:36;;;;;;;21.52;9.07;;;23.20;47.50;;;;;;5090340;28;20203;-77
2022/11/10 13:28:46;;;;;;;16.08;8.35;;;22.60;49.20;;;;;;5075364;28;20532;-76
2022/11/10 13:31:30;;;;;;;19.23;10.68;;;22.20;50.20;;;;;;5075952;28;20039;-76
2022/11/10 13:34:18;;;;;;;29.98;12.10;;;22.10;50.30;;;;;;5094718;28;20031;-76
2022/11/10 13:37:22;;;;;;;20.77;10.02;;;22.00;50.70;;;;;;5097347;28;20038;-76
2022/11/10 13:40:16;;;;;;;29.85;9.50;;;21.80;51.20;;;;;;5097064;28;20159;-76
2022/11/10 13:43:01;;;;;;;20.52;9.98;;;21.40;52.00;;;;;;5081963;28;20083;-75
2022/11/10 13:45:46;;;;;;;20.95;8.73;;;20.90;53.30;;;;;;5082861;28;20051;-75
2022/11/10 13:49:14;;;;;;;24.88;11.80;;;20.90;53.40;;;;;;5076716;28;20066;-75
2022/11/10 13:52:25;;;;;;;29.20;11.80;;;20.40;54.70;;;;;;5092076;28;20546;-75
2022/11/10 13:55:26;;;;;;;22.58;10.27;;;20.10;55.80;;;;;;5088574;28;20047;-75
2022/11/10 13:58:24;;;;;;;33.00;16.38;;;20.00;56.70;;;;;;5094569;28;20554;-75
2022/11/10 14:01:22;;;;;;;26.70;13.88;;;19.70;56.70;;;;;;5098271;28;20053;-75
2022/11/10 14:04:06;;;;;;;52.70;20.02;;;19.40;59.20;;;;;;5122924;27;20168;-75
2022/11/10 14:06:53;;;;;;;29.35;12.07;;;19.40;59.00;;;;;;5138042;27;20038;-74
2022/11/10 14:09:40;;;;;;;31.55;13.75;;;19.50;59.10;;;;;;5137892;27;20047;-74
2022/11/10 14:12:42;;;;;;;24.98;14.27;;;20.00;58.10;;;;;;5115684;27;20104;-75
2022/11/10 14:15:41;;;;;;;39.10;14.68;;;19.90;58.70;;;;;;5096792;28;20078;-74
2022/11/10 14:18:40;;;;;;;24.98;11.82;;;19.90;58.30;;;;;;5099337;28;20050;-74
2022/11/10 14:21:42;;;;;;;19.97;11.10;;;19.90;57.80;;;;;;5121238;27;20042;-75
2022/11/10 14:24:28;;;;;;;24.08;12.50;;;19.80;58.30;;;;;;5135421;27;20372;-74
2022/11/10 14:27:20;;;;;;;29.75;15.52;;;19.60;57.90;;;;;;5099820;27;20066;-74
2022/11/10 14:30:04;;;;;;;59.75;26.42;;;19.40;58.50;;;;;;5115919;27;20585;-75